createdAt,value
2023-01-26T00:01:15.636Z,7.40
2023-01-26T00:03:42.983Z,7.40
2023-01-26T00:06:13.025Z,7.40
2023-01-26T00:08:41.902Z,7.50
2023-01-26T00:11:10.275Z,7.40
2023-01-26T00:13:37.705Z,7.40
2023-01-26T00:16:05.348Z,7.40
2023-01-26T00:18:32.384Z,7.40
2023-01-26T00:21:01.234Z,7.40
2023-01-26T00:23:29.859Z,7.40
2023-01-26T00:25:56.584Z,7.30
2023-01-26T00:28:23.494Z,7.40
2023-01-26T00:30:50.228Z,7.30
2023-01-26T00:33:17.123Z,7.30
2023-01-26T00:35:44.788Z,7.30
2023-01-26T00:38:12.273Z,7.30
2023-01-26T00:40:39.864Z,7.30
2023-01-26T00:43:06.920Z,7.30
2023-01-26T00:45:35.553Z,7.30
2023-01-26T00:48:02.507Z,7.30
2023-01-26T00:50:29.387Z,7.30
2023-01-26T00:52:56.236Z,7.30
2023-01-26T00:55:23.049Z,7.30
2023-01-26T00:57:50.368Z,7.40
2023-01-26T01:00:18.250Z,7.40
2023-01-26T01:02:45.055Z,7.40
2023-01-26T01:05:12.080Z,7.40
2023-01-26T01:07:38.814Z,7.40
2023-01-26T01:10:05.672Z,8.30
2023-01-26T01:12:32.580Z,7.50
2023-01-26T01:14:59.275Z,7.50
2023-01-26T01:17:26.142Z,7.50
2023-01-26T01:19:52.948Z,7.50
2023-01-26T01:22:19.693Z,7.60
2023-01-26T01:24:46.586Z,8.60
2023-01-26T01:27:13.260Z,7.70
2023-01-26T01:29:40.044Z,7.70
2023-01-26T01:32:06.916Z,9.10
2023-01-26T01:34:33.595Z,7.70
2023-01-26T01:37:00.322Z,7.70
2023-01-26T01:39:27.021Z,7.70
2023-01-26T01:41:53.676Z,7.70
2023-01-26T01:44:23.031Z,7.60
2023-01-26T01:46:58.766Z,7.60
2023-01-26T01:49:30.489Z,7.60
2023-01-26T01:52:26.919Z,7.50
2023-01-26T01:55:02.115Z,7.50
2023-01-26T01:57:44.862Z,8.60
2023-01-26T02:00:15.931Z,7.50
2023-01-26T02:03:05.890Z,7.40
2023-01-26T02:05:35.734Z,7.40
2023-01-26T02:08:03.778Z,7.40
2023-01-26T02:10:32.240Z,7.30
2023-01-26T02:13:00.948Z,8.80
2023-01-26T02:15:28.091Z,7.20
2023-01-26T02:17:55.364Z,7.20
2023-01-26T02:20:50.914Z,8.00
2023-01-26T02:23:36.501Z,7.10
2023-01-26T02:26:08.855Z,7.10
2023-01-26T02:28:35.595Z,8.30
2023-01-26T02:31:03.483Z,7.10
2023-01-26T02:33:32.298Z,7.10
2023-01-26T02:35:59.274Z,7.10
2023-01-26T02:38:34.611Z,8.80
2023-01-26T02:41:13.735Z,7.00
2023-01-26T02:43:40.989Z,7.10
2023-01-26T02:46:07.697Z,7.10
2023-01-26T02:48:52.784Z,7.10
2023-01-26T02:51:19.519Z,7.00
2023-01-26T02:53:46.166Z,7.00
2023-01-26T02:56:12.911Z,7.00
2023-01-26T02:58:39.716Z,7.00
2023-01-26T03:01:06.427Z,6.90
2023-01-26T03:03:42.371Z,6.80
2023-01-26T03:06:10.521Z,6.70
2023-01-26T03:08:37.520Z,6.70
2023-01-26T03:11:06.205Z,6.60
2023-01-26T03:13:32.955Z,6.50
2023-01-26T03:16:06.803Z,6.50
2023-01-26T03:18:53.883Z,6.40
2023-01-26T03:21:39.411Z,6.30
2023-01-26T03:24:28.161Z,6.30
2023-01-26T03:27:13.637Z,6.20
2023-01-26T03:29:40.525Z,6.20
2023-01-26T03:32:07.247Z,6.10
2023-01-26T03:34:34.016Z,6.10
2023-01-26T03:37:00.972Z,6.00
2023-01-26T03:39:46.012Z,6.00
2023-01-26T03:42:31.657Z,5.90
2023-01-26T03:45:17.131Z,5.90
2023-01-26T03:48:02.592Z,5.90
2023-01-26T03:50:48.111Z,5.90
2023-01-26T03:53:42.165Z,7.00
2023-01-26T03:56:18.234Z,5.90
2023-01-26T03:58:46.266Z,7.10
2023-01-26T04:01:19.947Z,5.90
2023-01-26T04:04:10.074Z,5.90
2023-01-26T04:06:57.104Z,5.80
2023-01-26T04:09:24.383Z,5.80
2023-01-26T04:11:51.180Z,5.70
2023-01-26T04:14:47.687Z,5.70
2023-01-26T04:17:36.749Z,5.70
2023-01-26T04:20:23.530Z,5.60
2023-01-26T04:22:50.240Z,5.60
2023-01-26T04:25:19.611Z,5.60
2023-01-26T04:27:46.945Z,5.50
2023-01-26T04:30:16.078Z,5.40
2023-01-26T04:32:42.758Z,5.40
2023-01-26T04:35:10.210Z,5.30
2023-01-26T04:37:37.296Z,5.30
2023-01-26T04:40:04.718Z,5.30
2023-01-26T04:42:31.494Z,5.30
2023-01-26T04:44:58.578Z,5.20
2023-01-26T04:47:26.624Z,6.90
2023-01-26T04:49:54.338Z,5.10
2023-01-26T04:52:21.152Z,5.10
2023-01-26T04:54:47.823Z,5.20
2023-01-26T04:57:14.481Z,5.10
2023-01-26T04:59:41.145Z,5.10
2023-01-26T05:02:07.958Z,5.00
2023-01-26T05:04:35.036Z,6.50
2023-01-26T05:07:01.730Z,5.00
2023-01-26T05:09:28.469Z,5.00
2023-01-26T05:12:15.100Z,4.90
2023-01-26T05:14:41.820Z,4.80
2023-01-26T05:17:08.644Z,4.70
2023-01-26T05:19:35.609Z,5.20
2023-01-26T05:22:02.527Z,4.60
2023-01-26T05:24:29.885Z,4.50
2023-01-26T05:27:16.931Z,4.50
2023-01-26T05:29:44.075Z,4.40
2023-01-26T05:32:10.923Z,5.60
2023-01-26T05:34:37.861Z,5.60
2023-01-26T05:37:05.341Z,4.40
2023-01-26T05:39:32.368Z,4.40
2023-01-26T05:41:59.380Z,6.10
2023-01-26T05:44:26.389Z,5.50
2023-01-26T05:46:53.197Z,4.30
2023-01-26T05:49:20.250Z,4.30
2023-01-26T05:51:47.081Z,5.30
2023-01-26T05:54:13.924Z,5.30
2023-01-26T05:56:40.816Z,5.60
2023-01-26T05:59:07.653Z,4.20
2023-01-26T06:01:34.595Z,4.80
2023-01-26T06:04:02.389Z,4.20
2023-01-26T06:06:29.346Z,4.00
2023-01-26T06:08:56.185Z,5.80
2023-01-26T06:11:23.095Z,5.00
2023-01-26T06:13:50.537Z,5.50
2023-01-26T06:16:17.928Z,3.60
2023-01-26T06:18:49.236Z,3.50
2023-01-26T06:21:16.729Z,3.60
2023-01-26T06:23:43.736Z,5.30
2023-01-26T06:26:11.044Z,3.40
2023-01-26T06:28:37.889Z,3.20
2023-01-26T06:31:06.805Z,3.30
2023-01-26T06:33:35.551Z,3.30
2023-01-26T06:36:11.135Z,3.20
2023-01-26T06:38:45.013Z,3.10
2023-01-26T06:41:11.940Z,3.20
2023-01-26T06:43:38.887Z,4.90
2023-01-26T06:46:06.435Z,4.70
2023-01-26T06:48:35.220Z,4.80
2023-01-26T06:51:41.921Z,3.30
2023-01-26T06:54:13.009Z,4.70
2023-01-26T06:56:40.772Z,4.00
2023-01-26T06:59:09.877Z,3.30
2023-01-26T07:01:43.513Z,3.30
2023-01-26T07:04:10.712Z,4.90
2023-01-26T07:06:37.816Z,3.60
2023-01-26T07:09:05.037Z,4.80
2023-01-26T07:11:32.873Z,3.80
2023-01-26T07:14:00.121Z,3.80
2023-01-26T07:16:27.472Z,3.90
2023-01-26T07:18:57.511Z,4.10
2023-01-26T07:21:24.698Z,4.10
2023-01-26T07:23:52.360Z,4.10
2023-01-26T07:26:20.057Z,4.20
2023-01-26T07:28:46.944Z,4.20
2023-01-26T07:31:13.945Z,4.20
2023-01-26T07:33:40.775Z,4.20
2023-01-26T07:36:08.201Z,4.20
2023-01-26T07:38:35.116Z,4.20
2023-01-26T07:41:09.398Z,4.20
2023-01-26T07:43:37.849Z,4.20
2023-01-26T07:46:05.842Z,4.20
2023-01-26T07:48:34.431Z,4.30
2023-01-26T07:51:03.786Z,4.30
2023-01-26T07:53:33.950Z,4.30
2023-01-26T07:56:12.505Z,4.40
2023-01-26T07:58:39.627Z,4.40
2023-01-26T08:01:11.727Z,6.10
2023-01-26T08:03:38.840Z,4.50
2023-01-26T08:06:06.619Z,4.60
2023-01-26T08:08:34.309Z,4.60
2023-01-26T08:11:02.633Z,6.00
2023-01-26T08:13:35.720Z,5.80
2023-01-26T08:16:05.617Z,6.30
2023-01-26T08:18:32.621Z,4.60
2023-01-26T08:21:00.478Z,4.70
2023-01-26T08:23:27.680Z,6.40
2023-01-26T08:25:54.979Z,4.70
2023-01-26T08:28:22.083Z,6.50
2023-01-26T08:30:49.016Z,5.90
2023-01-26T08:33:16.001Z,6.40
2023-01-26T08:35:42.782Z,4.80
2023-01-26T08:38:09.698Z,4.80
2023-01-26T08:40:36.761Z,4.70
2023-01-26T08:43:03.851Z,4.70
2023-01-26T08:45:33.782Z,4.80
2023-01-26T08:48:00.641Z,4.80
2023-01-26T08:50:27.950Z,6.30
2023-01-26T08:52:56.416Z,4.80
2023-01-26T08:55:23.164Z,6.40
2023-01-26T08:57:55.086Z,4.80
2023-01-26T09:00:23.435Z,4.80
2023-01-26T09:02:50.890Z,4.80
2023-01-26T09:05:18.364Z,4.80
2023-01-26T09:07:45.874Z,6.00
2023-01-26T09:10:13.056Z,4.80
2023-01-26T09:12:41.242Z,4.80
2023-01-26T09:15:09.089Z,4.80
2023-01-26T09:17:35.998Z,4.70
2023-01-26T09:20:04.029Z,4.80
2023-01-26T09:22:30.993Z,4.70
2023-01-26T09:24:58.214Z,5.90
2023-01-26T09:27:25.193Z,3.70
2023-01-26T09:29:52.425Z,4.80
2023-01-26T09:32:19.700Z,4.70
2023-01-26T09:34:46.696Z,6.00
2023-01-26T09:37:13.887Z,4.70
2023-01-26T09:39:41.100Z,4.70
2023-01-26T09:42:17.023Z,6.30
2023-01-26T09:45:00.410Z,6.00
2023-01-26T09:47:56.090Z,6.40
2023-01-26T09:50:52.581Z,4.70
2023-01-26T09:53:25.253Z,4.70
2023-01-26T09:55:53.012Z,4.80
2023-01-26T09:58:35.792Z,4.80
2023-01-26T10:01:03.979Z,3.30
2023-01-26T10:03:44.012Z,4.90
2023-01-26T10:06:28.594Z,5.50
2023-01-26T10:08:57.274Z,5.00
2023-01-26T10:11:45.051Z,5.00
2023-01-26T10:14:25.553Z,6.80
2023-01-26T10:16:54.059Z,5.00
2023-01-26T10:19:35.189Z,5.00
2023-01-26T10:22:07.698Z,5.00
2023-01-26T10:24:35.001Z,5.10
2023-01-26T10:27:01.733Z,5.10
2023-01-26T10:29:28.532Z,5.10
2023-01-26T10:31:55.472Z,5.10
2023-01-26T10:34:27.364Z,5.20
2023-01-26T10:37:15.303Z,5.20
2023-01-26T10:40:04.211Z,5.30
2023-01-26T10:42:33.219Z,5.30
2023-01-26T10:45:02.698Z,5.30
2023-01-26T10:47:30.227Z,5.30
2023-01-26T10:50:14.196Z,5.30
2023-01-26T10:53:05.577Z,5.30
2023-01-26T10:55:34.123Z,5.30
2023-01-26T10:58:01.603Z,5.30
2023-01-26T11:00:33.503Z,5.20
2023-01-26T11:03:18.754Z,6.00
2023-01-26T11:05:48.133Z,5.20
2023-01-26T11:08:34.972Z,5.20
2023-01-26T11:11:03.837Z,6.30
2023-01-26T11:13:30.960Z,5.20
2023-01-26T11:16:30.409Z,5.30
2023-01-26T11:19:07.354Z,5.30
2023-01-26T11:21:58.751Z,5.30
2023-01-26T11:24:57.815Z,5.40
2023-01-26T11:27:37.872Z,5.40
2023-01-26T11:30:27.443Z,6.40
2023-01-26T11:33:06.214Z,5.40
2023-01-26T11:35:54.173Z,5.40
2023-01-26T11:38:38.236Z,5.50
2023-01-26T11:41:26.784Z,5.50
2023-01-26T11:43:56.540Z,5.50
2023-01-26T11:46:58.212Z,6.70
2023-01-26T11:49:39.845Z,5.60
2023-01-26T11:52:17.167Z,5.60
2023-01-26T11:55:16.594Z,5.60
2023-01-26T11:58:05.212Z,5.50
2023-01-26T12:00:48.218Z,5.50
2023-01-26T12:03:25.891Z,5.50
2023-01-26T12:05:57.650Z,5.50
2023-01-26T12:08:39.087Z,7.40
2023-01-26T12:11:23.342Z,5.60
2023-01-26T12:14:12.999Z,5.60
2023-01-26T12:17:18.466Z,5.50
2023-01-26T12:20:11.940Z,5.60
2023-01-26T12:22:43.320Z,5.50
2023-01-26T12:25:32.821Z,6.30
2023-01-26T12:28:25.190Z,5.50
2023-01-26T12:31:04.265Z,5.50
2023-01-26T12:33:35.981Z,5.50
2023-01-26T12:36:21.658Z,5.50
2023-01-26T12:39:00.575Z,5.50
2023-01-26T12:41:42.619Z,5.50
2023-01-26T12:44:36.181Z,5.50
2023-01-26T12:47:34.279Z,5.50
2023-01-26T12:50:13.716Z,5.40
2023-01-26T12:52:47.900Z,6.50
2023-01-26T12:55:42.126Z,5.40
2023-01-26T12:58:26.736Z,5.40
2023-01-26T13:01:02.349Z,5.40
2023-01-26T13:03:35.014Z,5.30
2023-01-26T13:06:12.358Z,5.30
2023-01-26T13:08:51.409Z,5.30
2023-01-26T13:11:51.988Z,5.50
2023-01-26T13:14:35.016Z,5.30
2023-01-26T13:17:17.178Z,5.30
2023-01-26T13:19:44.077Z,6.10
2023-01-26T13:22:20.304Z,5.20
2023-01-26T13:24:58.051Z,5.20
2023-01-26T13:27:29.472Z,5.20
2023-01-26T13:29:56.204Z,5.10
2023-01-26T13:32:23.199Z,7.00
2023-01-26T13:35:00.498Z,5.10
2023-01-26T13:37:50.694Z,5.00
2023-01-26T13:40:25.137Z,5.00
2023-01-26T13:43:14.594Z,5.00
2023-01-26T13:46:09.455Z,5.00
2023-01-26T13:48:45.693Z,4.90
2023-01-26T13:51:25.171Z,6.10
2023-01-26T13:54:01.524Z,6.80
2023-01-26T13:56:34.003Z,4.80
2023-01-26T13:59:07.047Z,4.70
2023-01-26T14:01:34.557Z,4.70
2023-01-26T14:04:07.031Z,4.70
2023-01-26T14:06:37.032Z,4.60
2023-01-26T14:09:05.235Z,4.50
2023-01-26T14:11:33.754Z,6.10
2023-01-26T14:14:02.008Z,6.00
2023-01-26T14:16:37.534Z,5.40
2023-01-26T14:19:16.287Z,4.50
2023-01-26T14:21:52.168Z,5.90
2023-01-26T14:24:25.251Z,5.50
2023-01-26T14:26:52.049Z,4.30
2023-01-26T14:29:22.451Z,4.30
2023-01-26T14:31:50.054Z,4.30
2023-01-26T14:34:23.751Z,4.20
2023-01-26T14:37:14.078Z,4.20
2023-01-26T14:39:44.743Z,4.10
2023-01-26T14:42:17.500Z,4.10
2023-01-26T14:44:44.390Z,4.00
2023-01-26T14:47:32.055Z,4.00
2023-01-26T14:50:06.910Z,3.90
2023-01-26T14:52:39.512Z,3.90
2023-01-26T14:55:15.091Z,3.80
2023-01-26T14:57:41.929Z,3.80
2023-01-26T15:00:32.577Z,3.70
2023-01-26T15:03:03.947Z,3.70
2023-01-26T15:05:35.105Z,3.70
2023-01-26T15:08:17.392Z,3.60
2023-01-26T15:10:53.482Z,3.50
2023-01-26T15:13:24.938Z,3.50
2023-01-26T15:16:11.981Z,3.50
2023-01-26T15:18:38.736Z,3.40
2023-01-26T15:21:15.262Z,3.30
2023-01-26T15:23:49.670Z,3.30
2023-01-26T15:26:33.782Z,3.30
2023-01-26T15:29:03.991Z,3.20
2023-01-26T15:31:32.364Z,3.20
2023-01-26T15:34:01.493Z,3.20
2023-01-26T15:36:51.016Z,3.10
2023-01-26T15:39:19.570Z,3.10
2023-01-26T15:42:01.881Z,3.10
2023-01-26T15:44:28.604Z,3.10
2023-01-26T15:46:56.532Z,3.10
2023-01-26T15:49:23.474Z,3.00
2023-01-26T15:51:51.672Z,3.00
2023-01-26T15:54:19.986Z,2.90
2023-01-26T15:56:46.647Z,2.90
2023-01-26T15:59:13.330Z,2.80
2023-01-26T16:01:40.146Z,2.80
2023-01-26T16:04:09.540Z,2.70
2023-01-26T16:06:36.296Z,2.70
2023-01-26T16:09:03.056Z,2.70
2023-01-26T16:11:33.981Z,2.80
2023-01-26T16:14:04.344Z,2.70
2023-01-26T16:16:32.623Z,2.60
2023-01-26T16:18:59.739Z,2.60
2023-01-26T16:21:31.355Z,2.60
2023-01-26T16:23:58.318Z,2.60
2023-01-26T16:26:27.137Z,2.50
2023-01-26T16:28:54.178Z,2.50
2023-01-26T16:31:23.602Z,2.50
2023-01-26T16:33:51.024Z,2.40
2023-01-26T16:36:19.186Z,2.40
2023-01-26T16:38:46.787Z,2.40
2023-01-26T16:41:29.626Z,2.40
2023-01-26T16:43:59.498Z,2.30
2023-01-26T16:46:28.106Z,2.40
2023-01-26T16:48:56.114Z,2.30
2023-01-26T16:51:29.608Z,2.30
2023-01-26T16:53:56.905Z,2.20
2023-01-26T16:56:24.713Z,2.10
2023-01-26T16:58:51.917Z,2.10
2023-01-26T17:01:22.023Z,2.10
2023-01-26T17:03:49.420Z,2.00
2023-01-26T17:06:17.812Z,2.00
2023-01-26T17:08:45.614Z,2.00
2023-01-26T17:11:25.019Z,2.00
2023-01-26T17:13:53.123Z,2.00
2023-01-26T17:16:22.160Z,2.00
2023-01-26T17:18:49.444Z,2.00
2023-01-26T17:21:17.502Z,2.00
2023-01-26T17:23:44.770Z,1.90
2023-01-26T17:26:15.166Z,1.90
2023-01-26T17:28:42.572Z,1.90
2023-01-26T17:31:17.508Z,3.00
2023-01-26T17:33:46.491Z,1.90
2023-01-26T17:36:14.382Z,1.90
2023-01-26T17:38:41.387Z,1.80
2023-01-26T17:41:08.447Z,1.90
2023-01-26T17:43:35.391Z,1.80
2023-01-26T17:46:14.719Z,1.80
2023-01-26T17:48:44.846Z,1.80
2023-01-26T17:51:20.544Z,1.80
2023-01-26T17:53:52.556Z,1.80
2023-01-26T17:56:21.588Z,1.80
2023-01-26T17:58:51.687Z,1.80
2023-01-26T18:01:19.683Z,1.80
2023-01-26T18:03:46.591Z,2.20
2023-01-26T18:06:13.758Z,1.80
2023-01-26T18:08:41.194Z,1.70
2023-01-26T18:11:11.983Z,1.70
2023-01-26T18:13:40.047Z,1.70
2023-01-26T18:16:08.452Z,1.60
2023-01-26T18:18:35.860Z,3.70
2023-01-26T18:21:18.817Z,1.60
2023-01-26T18:23:50.601Z,1.60
2023-01-26T18:26:19.379Z,1.60
2023-01-26T18:28:47.037Z,1.60
2023-01-26T18:31:18.421Z,1.70
2023-01-26T18:33:46.396Z,2.30
2023-01-26T18:36:15.589Z,1.70
2023-01-26T18:38:44.573Z,1.70
2023-01-26T18:41:13.747Z,1.70
2023-01-26T18:43:45.016Z,1.60
2023-01-26T18:46:13.636Z,1.60
2023-01-26T18:48:41.249Z,1.50
2023-01-26T18:51:11.226Z,1.50
2023-01-26T18:53:41.238Z,1.40
2023-01-26T18:56:13.631Z,1.40
2023-01-26T18:58:41.374Z,2.70
2023-01-26T19:01:14.008Z,1.30
2023-01-26T19:03:47.459Z,1.30
2023-01-26T19:06:19.009Z,1.30
2023-01-26T19:08:50.296Z,1.30
2023-01-26T19:11:20.435Z,1.30
2023-01-26T19:13:48.794Z,1.30
2023-01-26T19:16:15.744Z,1.30
2023-01-26T19:18:43.004Z,1.30
2023-01-26T19:21:12.692Z,1.30
2023-01-26T19:23:43.056Z,1.30
2023-01-26T19:26:14.582Z,1.30
2023-01-26T19:28:42.022Z,1.40
2023-01-26T19:31:10.177Z,1.40
2023-01-26T19:33:37.453Z,1.40
2023-01-26T19:36:06.613Z,1.40
2023-01-26T19:38:34.724Z,1.40
2023-01-26T19:41:02.837Z,1.40
2023-01-26T19:43:30.649Z,1.30
2023-01-26T19:45:57.715Z,1.30
2023-01-26T19:48:27.427Z,1.30
2023-01-26T19:51:04.229Z,1.30
2023-01-26T19:53:35.616Z,1.30
2023-01-26T19:56:26.835Z,1.30
2023-01-26T19:59:00.369Z,1.30
2023-01-26T20:01:30.790Z,1.30
2023-01-26T20:04:00.278Z,1.30
2023-01-26T20:06:33.067Z,1.30
2023-01-26T20:09:00.633Z,1.30
2023-01-26T20:11:29.970Z,1.40
2023-01-26T20:13:58.836Z,1.40
2023-01-26T20:16:29.423Z,1.40
2023-01-26T20:18:57.468Z,1.50
2023-01-26T20:21:24.600Z,1.50
2023-01-26T20:23:55.405Z,1.50
2023-01-26T20:26:23.685Z,1.50
2023-01-26T20:28:50.827Z,1.50
2023-01-26T20:31:21.228Z,1.40
2023-01-26T20:33:49.283Z,2.90
2023-01-26T20:36:19.455Z,1.40
2023-01-26T20:38:48.070Z,1.30
2023-01-26T20:41:17.939Z,1.30
2023-01-26T20:43:58.641Z,1.40
2023-01-26T20:46:29.393Z,1.40
2023-01-26T20:48:57.273Z,1.50
2023-01-26T20:51:29.196Z,1.50
2023-01-26T20:53:57.691Z,1.40
2023-01-26T20:56:24.556Z,1.40
2023-01-26T20:58:55.746Z,1.40
2023-01-26T21:01:23.395Z,1.40
2023-01-26T21:03:50.757Z,1.40
2023-01-26T21:06:19.692Z,1.30
2023-01-26T21:08:53.537Z,1.30
2023-01-26T21:11:20.987Z,1.30
2023-01-26T21:13:48.434Z,1.30
2023-01-26T21:16:17.118Z,1.30
2023-01-26T21:18:46.217Z,1.30
2023-01-26T21:21:17.709Z,1.20
2023-01-26T21:23:45.973Z,1.20
2023-01-26T21:26:20.904Z,2.50
2023-01-26T21:28:54.251Z,1.10
2023-01-26T21:31:22.978Z,2.80
2023-01-26T21:33:50.350Z,1.00
2023-01-26T21:36:23.579Z,1.00
2023-01-26T21:38:52.247Z,1.00
2023-01-26T21:41:43.809Z,1.00
2023-01-26T21:44:24.370Z,1.00
2023-01-26T21:46:54.448Z,1.10
2023-01-26T21:49:22.783Z,1.20
2023-01-26T21:52:09.013Z,1.20
2023-01-26T21:54:37.991Z,1.20
2023-01-26T21:57:27.187Z,1.20
2023-01-26T21:59:54.659Z,1.20
2023-01-26T22:02:22.077Z,1.20
2023-01-26T22:04:49.209Z,1.10
2023-01-26T22:07:16.034Z,1.10
2023-01-26T22:09:43.130Z,2.90
2023-01-26T22:12:10.018Z,1.00
2023-01-26T22:14:36.795Z,1.00
2023-01-26T22:17:03.734Z,0.90
2023-01-26T22:19:30.495Z,0.90
2023-01-26T22:21:57.532Z,1.00
2023-01-26T22:24:24.435Z,1.00
2023-01-26T22:26:51.254Z,1.00
2023-01-26T22:29:18.149Z,1.00
2023-01-26T22:31:44.968Z,1.00
2023-01-26T22:34:12.100Z,0.90
2023-01-26T22:36:40.063Z,1.00
2023-01-26T22:39:08.108Z,1.00
2023-01-26T22:41:36.078Z,1.00
2023-01-26T22:44:02.814Z,1.00
2023-01-26T22:46:31.098Z,1.00
2023-01-26T22:48:59.187Z,1.00
2023-01-26T22:51:31.024Z,1.00
2023-01-26T22:53:59.263Z,1.00
2023-01-26T22:56:27.293Z,1.00
2023-01-26T22:58:59.650Z,0.90
2023-01-26T23:01:29.566Z,0.80
2023-01-26T23:03:57.387Z,0.70
2023-01-26T23:06:24.899Z,0.70
2023-01-26T23:08:52.190Z,0.60
2023-01-26T23:11:29.705Z,0.60
2023-01-26T23:13:57.887Z,1.50
2023-01-26T23:16:25.610Z,0.50
2023-01-26T23:18:54.347Z,0.40
2023-01-26T23:21:21.648Z,0.40
2023-01-26T23:23:48.528Z,0.40
2023-01-26T23:26:15.341Z,0.30
2023-01-26T23:28:43.783Z,0.30
2023-01-26T23:31:12.588Z,0.20
2023-01-26T23:33:39.928Z,0.20
2023-01-26T23:36:08.145Z,0.10
2023-01-26T23:38:35.243Z,0.10
2023-01-26T23:41:02.396Z,0.20
2023-01-26T23:43:29.138Z,0.20
2023-01-26T23:45:56.887Z,0.20
2023-01-26T23:48:24.518Z,0.30
2023-01-26T23:50:59.985Z,0.30
2023-01-26T23:53:27.401Z,0.40
2023-01-26T23:55:54.358Z,0.40
2023-01-26T23:58:23.220Z,0.50
